sensor_id;sensor_type;location;lat;lon;timestamp;temperature;humidity
59148;DHT22;44930;52.878;6.168;2023-03-04T00:02:23;6.20;99.90
59148;DHT22;44930;52.878;6.168;2023-03-04T00:04:48;6.20;99.90
59148;DHT22;44930;52.878;6.168;2023-03-04T00:07:14;6.10;99.90
59148;DHT22;44930;52.878;6.168;2023-03-04T00:09:45;6.20;99.90
59148;DHT22;44930;52.878;6.168;2023-03-04T00:12:11;6.20;99.90
59148;DHT22;44930;52.878;6.168;2023-03-04T00:14:37;6.30;99.90
59148;DHT22;44930;52.878;6.168;2023-03-04T00:19:30;6.10;99.90
59148;DHT22;44930;52.878;6.168;2023-03-04T00:21:56;6.10;99.90
59148;DHT22;44930;52.878;6.168;2023-03-04T00:24:21;6.10;99.90
59148;DHT22;44930;52.878;6.168;2023-03-04T00:26:47;6.10;99.90
59148;DHT22;44930;52.878;6.168;2023-03-04T00:29:12;6.20;99.90
59148;DHT22;44930;52.878;6.168;2023-03-04T00:31:38;6.20;99.90
59148;DHT22;44930;52.878;6.168;2023-03-04T00:34:03;6.10;99.90
59148;DHT22;44930;52.878;6.168;2023-03-04T00:36:29;6.20;99.90
59148;DHT22;44930;52.878;6.168;2023-03-04T00:38:55;6.10;99.90
59148;DHT22;44930;52.878;6.168;2023-03-04T00:41:20;6.10;99.90
59148;DHT22;44930;52.878;6.168;2023-03-04T00:43:46;6.10;99.90
59148;DHT22;44930;52.878;6.168;2023-03-04T00:46:11;6.10;99.90
59148;DHT22;44930;52.878;6.168;2023-03-04T00:48:37;6.20;99.90
59148;DHT22;44930;52.878;6.168;2023-03-04T00:51:03;6.10;99.90
59148;DHT22;44930;52.878;6.168;2023-03-04T00:53:29;6.20;99.90
59148;DHT22;44930;52.878;6.168;2023-03-04T00:55:54;6.20;99.90
59148;DHT22;44930;52.878;6.168;2023-03-04T00:58:20;6.20;99.90
59148;DHT22;44930;52.878;6.168;2023-03-04T01:00:45;6.10;99.90
59148;DHT22;44930;52.878;6.168;2023-03-04T01:03:11;6.10;99.90
59148;DHT22;44930;52.878;6.168;2023-03-04T01:05:37;6.10;99.90
59148;DHT22;44930;52.878;6.168;2023-03-04T01:08:03;6.00;99.90
59148;DHT22;44930;52.878;6.168;2023-03-04T01:10:29;6.00;99.90
59148;DHT22;44930;52.878;6.168;2023-03-04T01:12:55;6.10;99.90
59148;DHT22;44930;52.878;6.168;2023-03-04T01:15:20;6.10;99.90
59148;DHT22;44930;52.878;6.168;2023-03-04T01:17:46;6.10;99.90
59148;DHT22;44930;52.878;6.168;2023-03-04T01:20:12;6.10;99.90
59148;DHT22;44930;52.878;6.168;2023-03-04T01:22:38;6.00;99.90
59148;DHT22;44930;52.878;6.168;2023-03-04T01:25:04;6.10;99.90
59148;DHT22;44930;52.878;6.168;2023-03-04T01:27:30;6.00;99.90
59148;DHT22;44930;52.878;6.168;2023-03-04T01:29:56;6.10;99.90
59148;DHT22;44930;52.878;6.168;2023-03-04T01:32:21;6.00;99.90
59148;DHT22;44930;52.878;6.168;2023-03-04T01:34:47;6.10;99.90
59148;DHT22;44930;52.878;6.168;2023-03-04T01:37:12;6.10;99.90
59148;DHT22;44930;52.878;6.168;2023-03-04T01:39:38;6.10;99.90
59148;DHT22;44930;52.878;6.168;2023-03-04T01:42:04;6.00;99.90
59148;DHT22;44930;52.878;6.168;2023-03-04T01:44:30;5.90;99.90
59148;DHT22;44930;52.878;6.168;2023-03-04T01:46:55;6.00;99.90
59148;DHT22;44930;52.878;6.168;2023-03-04T01:49:21;6.10;99.90
59148;DHT22;44930;52.878;6.168;2023-03-04T01:51:50;5.90;99.90
59148;DHT22;44930;52.878;6.168;2023-03-04T01:54:17;6.00;99.90
59148;DHT22;44930;52.878;6.168;2023-03-04T01:56:44;6.00;99.90
59148;DHT22;44930;52.878;6.168;2023-03-04T01:59:14;6.10;99.90
59148;DHT22;44930;52.878;6.168;2023-03-04T02:01:43;5.90;99.90
59148;DHT22;44930;52.878;6.168;2023-03-04T02:04:10;6.10;99.90
59148;DHT22;44930;52.878;6.168;2023-03-04T02:06:38;6.10;99.90
59148;DHT22;44930;52.878;6.168;2023-03-04T02:09:04;6.20;99.90
59148;DHT22;44930;52.878;6.168;2023-03-04T02:11:31;5.90;99.90
59148;DHT22;44930;52.878;6.168;2023-03-04T02:13:57;6.10;99.90
59148;DHT22;44930;52.878;6.168;2023-03-04T02:16:23;6.10;99.90
59148;DHT22;44930;52.878;6.168;2023-03-04T02:18:48;6.00;99.90
59148;DHT22;44930;52.878;6.168;2023-03-04T02:21:46;6.10;99.90
59148;DHT22;44930;52.878;6.168;2023-03-04T02:26:44;6.10;99.90
59148;DHT22;44930;52.878;6.168;2023-03-04T02:29:13;6.10;99.90
59148;DHT22;44930;52.878;6.168;2023-03-04T02:31:44;6.10;99.90
59148;DHT22;44930;52.878;6.168;2023-03-04T02:36:41;6.00;99.90
59148;DHT22;44930;52.878;6.168;2023-03-04T02:39:26;5.70;99.90
59148;DHT22;44930;52.878;6.168;2023-03-04T02:41:53;6.10;99.90
59148;DHT22;44930;52.878;6.168;2023-03-04T02:44:25;6.10;99.90
59148;DHT22;44930;52.878;6.168;2023-03-04T02:46:51;6.10;99.90
59148;DHT22;44930;52.878;6.168;2023-03-04T02:49:18;6.20;99.90
59148;DHT22;44930;52.878;6.168;2023-03-04T02:51:44;6.10;99.90
59148;DHT22;44930;52.878;6.168;2023-03-04T02:54:21;5.70;99.90
59148;DHT22;44930;52.878;6.168;2023-03-04T02:56:52;6.00;99.90
59148;DHT22;44930;52.878;6.168;2023-03-04T02:59:19;6.00;99.90
59148;DHT22;44930;52.878;6.168;2023-03-04T03:01:45;6.00;99.90
59148;DHT22;44930;52.878;6.168;2023-03-04T03:04:11;6.00;99.90
59148;DHT22;44930;52.878;6.168;2023-03-04T03:06:37;5.90;99.90
59148;DHT22;44930;52.878;6.168;2023-03-04T03:09:03;6.00;99.90
59148;DHT22;44930;52.878;6.168;2023-03-04T03:11:29;6.10;99.90
59148;DHT22;44930;52.878;6.168;2023-03-04T03:13:55;6.00;99.90
59148;DHT22;44930;52.878;6.168;2023-03-04T03:16:20;6.10;99.90
59148;DHT22;44930;52.878;6.168;2023-03-04T03:18:46;5.90;99.90
59148;DHT22;44930;52.878;6.168;2023-03-04T03:21:11;5.90;99.90
59148;DHT22;44930;52.878;6.168;2023-03-04T03:23:37;6.00;99.90
59148;DHT22;44930;52.878;6.168;2023-03-04T03:26:04;6.00;99.90
59148;DHT22;44930;52.878;6.168;2023-03-04T03:30:56;5.90;99.90
59148;DHT22;44930;52.878;6.168;2023-03-04T03:33:22;5.90;99.90
59148;DHT22;44930;52.878;6.168;2023-03-04T03:35:47;5.90;99.90
59148;DHT22;44930;52.878;6.168;2023-03-04T03:38:13;6.00;99.90
59148;DHT22;44930;52.878;6.168;2023-03-04T03:40:39;6.00;99.90
59148;DHT22;44930;52.878;6.168;2023-03-04T03:43:04;6.10;99.90
59148;DHT22;44930;52.878;6.168;2023-03-04T03:45:30;6.00;99.90
59148;DHT22;44930;52.878;6.168;2023-03-04T03:47:55;5.80;99.90
59148;DHT22;44930;52.878;6.168;2023-03-04T03:50:21;5.90;99.90
59148;DHT22;44930;52.878;6.168;2023-03-04T03:52:47;6.10;99.90
59148;DHT22;44930;52.878;6.168;2023-03-04T03:55:12;6.20;99.90
59148;DHT22;44930;52.878;6.168;2023-03-04T03:57:38;6.00;99.90
59148;DHT22;44930;52.878;6.168;2023-03-04T04:00:05;6.00;99.90
59148;DHT22;44930;52.878;6.168;2023-03-04T04:02:31;6.20;99.90
59148;DHT22;44930;52.878;6.168;2023-03-04T04:04:57;6.10;99.90
59148;DHT22;44930;52.878;6.168;2023-03-04T04:07:22;6.10;99.90
59148;DHT22;44930;52.878;6.168;2023-03-04T04:09:48;5.90;99.90
59148;DHT22;44930;52.878;6.168;2023-03-04T04:12:15;6.10;99.90
59148;DHT22;44930;52.878;6.168;2023-03-04T04:14:41;6.00;99.90
59148;DHT22;44930;52.878;6.168;2023-03-04T04:17:07;6.00;99.90
59148;DHT22;44930;52.878;6.168;2023-03-04T04:19:33;5.90;99.90
59148;DHT22;44930;52.878;6.168;2023-03-04T04:21:58;6.10;99.90
59148;DHT22;44930;52.878;6.168;2023-03-04T04:26:50;6.00;99.90
59148;DHT22;44930;52.878;6.168;2023-03-04T04:29:15;5.90;99.90
59148;DHT22;44930;52.878;6.168;2023-03-04T04:31:41;6.00;99.90
59148;DHT22;44930;52.878;6.168;2023-03-04T04:34:07;6.10;99.90
59148;DHT22;44930;52.878;6.168;2023-03-04T04:36:33;6.00;99.90
59148;DHT22;44930;52.878;6.168;2023-03-04T04:38:58;6.00;99.90
59148;DHT22;44930;52.878;6.168;2023-03-04T04:46:18;6.00;99.90
59148;DHT22;44930;52.878;6.168;2023-03-04T04:48:43;5.90;99.90
59148;DHT22;44930;52.878;6.168;2023-03-04T04:51:09;6.00;99.90
59148;DHT22;44930;52.878;6.168;2023-03-04T04:53:35;6.00;99.90
59148;DHT22;44930;52.878;6.168;2023-03-04T04:56:08;6.20;99.90
59148;DHT22;44930;52.878;6.168;2023-03-04T04:58:33;6.10;99.90
59148;DHT22;44930;52.878;6.168;2023-03-04T05:01:00;6.10;99.90
59148;DHT22;44930;52.878;6.168;2023-03-04T05:03:25;6.10;99.90
59148;DHT22;44930;52.878;6.168;2023-03-04T05:05:51;6.00;99.90
59148;DHT22;44930;52.878;6.168;2023-03-04T05:08:16;6.20;99.90
59148;DHT22;44930;52.878;6.168;2023-03-04T05:10:42;6.20;99.90
59148;DHT22;44930;52.878;6.168;2023-03-04T05:13:07;6.00;99.90
59148;DHT22;44930;52.878;6.168;2023-03-04T05:15:33;6.10;99.90
59148;DHT22;44930;52.878;6.168;2023-03-04T05:17:58;6.00;99.90
59148;DHT22;44930;52.878;6.168;2023-03-04T05:20:24;6.00;99.90
59148;DHT22;44930;52.878;6.168;2023-03-04T05:22:49;6.00;99.90
59148;DHT22;44930;52.878;6.168;2023-03-04T05:25:15;6.10;99.90
59148;DHT22;44930;52.878;6.168;2023-03-04T05:27:41;6.10;99.90
59148;DHT22;44930;52.878;6.168;2023-03-04T05:30:07;6.00;99.90
59148;DHT22;44930;52.878;6.168;2023-03-04T05:32:33;5.90;99.90
59148;DHT22;44930;52.878;6.168;2023-03-04T05:34:58;5.90;99.90
59148;DHT22;44930;52.878;6.168;2023-03-04T05:37:24;5.80;99.90
59148;DHT22;44930;52.878;6.168;2023-03-04T05:39:49;5.80;99.90
59148;DHT22;44930;52.878;6.168;2023-03-04T05:42:15;5.90;99.90
59148;DHT22;44930;52.878;6.168;2023-03-04T05:44:40;5.80;99.90
59148;DHT22;44930;52.878;6.168;2023-03-04T05:47:06;5.80;99.90
59148;DHT22;44930;52.878;6.168;2023-03-04T05:49:31;5.90;99.90
59148;DHT22;44930;52.878;6.168;2023-03-04T05:51:57;5.80;99.90
59148;DHT22;44930;52.878;6.168;2023-03-04T05:54:22;5.90;99.90
59148;DHT22;44930;52.878;6.168;2023-03-04T05:56:48;5.70;99.90
59148;DHT22;44930;52.878;6.168;2023-03-04T05:59:13;5.70;99.90
59148;DHT22;44930;52.878;6.168;2023-03-04T06:01:45;5.60;99.90
59148;DHT22;44930;52.878;6.168;2023-03-04T06:04:10;5.50;99.90
59148;DHT22;44930;52.878;6.168;2023-03-04T06:06:36;5.50;99.90
59148;DHT22;44930;52.878;6.168;2023-03-04T06:09:02;5.70;99.90
59148;DHT22;44930;52.878;6.168;2023-03-04T06:11:27;5.50;99.90
59148;DHT22;44930;52.878;6.168;2023-03-04T06:16:19;5.70;99.90
59148;DHT22;44930;52.878;6.168;2023-03-04T06:21:10;5.70;99.90
59148;DHT22;44930;52.878;6.168;2023-03-04T06:26:02;5.70;99.90
59148;DHT22;44930;52.878;6.168;2023-03-04T06:28:28;5.60;99.90
59148;DHT22;44930;52.878;6.168;2023-03-04T06:30:55;5.80;99.90
59148;DHT22;44930;52.878;6.168;2023-03-04T06:33:20;5.60;99.90
59148;DHT22;44930;52.878;6.168;2023-03-04T06:35:47;5.70;99.90
59148;DHT22;44930;52.878;6.168;2023-03-04T06:38:12;5.50;99.90
59148;DHT22;44930;52.878;6.168;2023-03-04T06:40:38;5.60;99.90
59148;DHT22;44930;52.878;6.168;2023-03-04T06:43:04;6.00;99.90
59148;DHT22;44930;52.878;6.168;2023-03-04T06:45:30;5.80;99.90
59148;DHT22;44930;52.878;6.168;2023-03-04T06:47:55;5.80;99.90
59148;DHT22;44930;52.878;6.168;2023-03-04T06:52:47;5.60;99.90
59148;DHT22;44930;52.878;6.168;2023-03-04T06:55:13;5.70;99.90
59148;DHT22;44930;52.878;6.168;2023-03-04T06:57:39;5.60;99.90
59148;DHT22;44930;52.878;6.168;2023-03-04T07:00:05;5.60;99.90
59148;DHT22;44930;52.878;6.168;2023-03-04T07:02:31;5.70;99.90
59148;DHT22;44930;52.878;6.168;2023-03-04T07:04:57;5.60;99.90
59148;DHT22;44930;52.878;6.168;2023-03-04T07:07:22;5.60;99.90
59148;DHT22;44930;52.878;6.168;2023-03-04T07:09:50;5.70;99.90
59148;DHT22;44930;52.878;6.168;2023-03-04T07:12:15;5.60;99.90
59148;DHT22;44930;52.878;6.168;2023-03-04T07:17:07;5.70;99.90
59148;DHT22;44930;52.878;6.168;2023-03-04T07:21:58;5.90;99.90
59148;DHT22;44930;52.878;6.168;2023-03-04T07:24:24;6.00;99.90
59148;DHT22;44930;52.878;6.168;2023-03-04T07:29:15;6.10;99.90
59148;DHT22;44930;52.878;6.168;2023-03-04T07:31:41;6.00;99.90
59148;DHT22;44930;52.878;6.168;2023-03-04T07:36:35;6.30;99.90
59148;DHT22;44930;52.878;6.168;2023-03-04T07:39:02;6.30;99.90
59148;DHT22;44930;52.878;6.168;2023-03-04T07:41:28;6.30;99.90
59148;DHT22;44930;52.878;6.168;2023-03-04T07:43:57;6.50;99.90
59148;DHT22;44930;52.878;6.168;2023-03-04T07:46:23;6.50;99.90
59148;DHT22;44930;52.878;6.168;2023-03-04T07:48:49;6.40;99.90
59148;DHT22;44930;52.878;6.168;2023-03-04T07:51:17;6.40;99.90
59148;DHT22;44930;52.878;6.168;2023-03-04T07:53:45;6.40;99.90
59148;DHT22;44930;52.878;6.168;2023-03-04T07:56:17;6.40;99.90
59148;DHT22;44930;52.878;6.168;2023-03-04T08:01:11;6.40;99.90
59148;DHT22;44930;52.878;6.168;2023-03-04T08:03:37;6.40;99.90
59148;DHT22;44930;52.878;6.168;2023-03-04T08:06:07;6.40;99.90
59148;DHT22;44930;52.878;6.168;2023-03-04T08:08:32;6.30;99.90
59148;DHT22;44930;52.878;6.168;2023-03-04T08:10:58;6.20;99.90
59148;DHT22;44930;52.878;6.168;2023-03-04T08:13:24;6.30;99.90
59148;DHT22;44930;52.878;6.168;2023-03-04T08:15:49;6.20;99.90
59148;DHT22;44930;52.878;6.168;2023-03-04T08:18:15;6.40;99.90
59148;DHT22;44930;52.878;6.168;2023-03-04T08:20:41;6.30;99.90
59148;DHT22;44930;52.878;6.168;2023-03-04T08:23:08;6.30;99.90
59148;DHT22;44930;52.878;6.168;2023-03-04T08:25:36;6.40;99.90
59148;DHT22;44930;52.878;6.168;2023-03-04T08:28:02;6.30;99.90
59148;DHT22;44930;52.878;6.168;2023-03-04T08:30:28;6.50;99.90
59148;DHT22;44930;52.878;6.168;2023-03-04T08:32:53;6.40;99.90
59148;DHT22;44930;52.878;6.168;2023-03-04T08:35:19;6.50;99.90
59148;DHT22;44930;52.878;6.168;2023-03-04T08:37:45;6.60;99.90
59148;DHT22;44930;52.878;6.168;2023-03-04T08:40:11;6.50;99.90
59148;DHT22;44930;52.878;6.168;2023-03-04T08:42:37;6.50;99.90
59148;DHT22;44930;52.878;6.168;2023-03-04T08:45:03;6.40;99.90
59148;DHT22;44930;52.878;6.168;2023-03-04T08:47:28;6.60;99.90
59148;DHT22;44930;52.878;6.168;2023-03-04T08:49:54;6.80;99.90
59148;DHT22;44930;52.878;6.168;2023-03-04T08:52:19;6.80;99.90
59148;DHT22;44930;52.878;6.168;2023-03-04T08:54:45;6.70;99.90
59148;DHT22;44930;52.878;6.168;2023-03-04T08:57:11;6.80;99.90
59148;DHT22;44930;52.878;6.168;2023-03-04T08:59:37;6.80;99.90
59148;DHT22;44930;52.878;6.168;2023-03-04T09:02:02;6.70;99.90
59148;DHT22;44930;52.878;6.168;2023-03-04T09:04:28;6.80;99.90
59148;DHT22;44930;52.878;6.168;2023-03-04T09:06:53;6.70;99.90
59148;DHT22;44930;52.878;6.168;2023-03-04T09:11:45;6.70;99.90
59148;DHT22;44930;52.878;6.168;2023-03-04T09:14:10;6.80;99.90
59148;DHT22;44930;52.878;6.168;2023-03-04T09:16:36;6.80;99.90
59148;DHT22;44930;52.878;6.168;2023-03-04T09:19:02;6.90;99.90
59148;DHT22;44930;52.878;6.168;2023-03-04T09:21:27;6.80;99.90
59148;DHT22;44930;52.878;6.168;2023-03-04T09:23:53;7.00;99.90
59148;DHT22;44930;52.878;6.168;2023-03-04T09:26:26;7.00;99.90
59148;DHT22;44930;52.878;6.168;2023-03-04T09:28:57;7.00;99.90
59148;DHT22;44930;52.878;6.168;2023-03-04T09:31:24;7.10;99.90
59148;DHT22;44930;52.878;6.168;2023-03-04T09:33:50;7.30;99.90
59148;DHT22;44930;52.878;6.168;2023-03-04T09:36:16;7.20;99.90
59148;DHT22;44930;52.878;6.168;2023-03-04T09:38:42;7.30;99.90
59148;DHT22;44930;52.878;6.168;2023-03-04T09:41:43;7.00;99.90
59148;DHT22;44930;52.878;6.168;2023-03-04T09:44:23;7.30;99.90
59148;DHT22;44930;52.878;6.168;2023-03-04T09:46:50;7.30;99.90
59148;DHT22;44930;52.878;6.168;2023-03-04T09:49:18;7.20;99.90
59148;DHT22;44930;52.878;6.168;2023-03-04T09:54:26;7.50;99.90
59148;DHT22;44930;52.878;6.168;2023-03-04T09:57:09;7.40;99.90
59148;DHT22;44930;52.878;6.168;2023-03-04T09:59:53;7.70;99.90
59148;DHT22;44930;52.878;6.168;2023-03-04T10:02:43;7.60;99.90
59148;DHT22;44930;52.878;6.168;2023-03-04T10:05:14;7.50;99.90
59148;DHT22;44930;52.878;6.168;2023-03-04T10:07:42;7.50;99.90
59148;DHT22;44930;52.878;6.168;2023-03-04T10:10:21;7.10;99.90
59148;DHT22;44930;52.878;6.168;2023-03-04T10:12:50;7.70;99.90
59148;DHT22;44930;52.878;6.168;2023-03-04T10:15:35;7.60;99.90
59148;DHT22;44930;52.878;6.168;2023-03-04T10:18:21;7.50;99.90
59148;DHT22;44930;52.878;6.168;2023-03-04T10:23:22;7.60;99.90
59148;DHT22;44930;52.878;6.168;2023-03-04T10:25:49;7.50;99.90
59148;DHT22;44930;52.878;6.168;2023-03-04T10:28:24;7.80;99.90
59148;DHT22;44930;52.878;6.168;2023-03-04T10:33:31;7.80;99.90
59148;DHT22;44930;52.878;6.168;2023-03-04T10:38:35;7.50;99.90
59148;DHT22;44930;52.878;6.168;2023-03-04T10:41:11;7.70;99.90
59148;DHT22;44930;52.878;6.168;2023-03-04T10:43:38;7.50;99.90
59148;DHT22;44930;52.878;6.168;2023-03-04T10:48:30;7.50;99.90
59148;DHT22;44930;52.878;6.168;2023-03-04T10:51:19;7.70;99.90
59148;DHT22;44930;52.878;6.168;2023-03-04T10:53:47;7.50;99.90
59148;DHT22;44930;52.878;6.168;2023-03-04T11:07:51;7.40;99.90
59148;DHT22;44930;52.878;6.168;2023-03-04T11:10:21;7.60;99.90
59148;DHT22;44930;52.878;6.168;2023-03-04T11:21:00;7.70;99.90
59148;DHT22;44930;52.878;6.168;2023-03-04T11:23:47;7.50;99.90
59148;DHT22;44930;52.878;6.168;2023-03-04T11:26:27;7.50;99.90
59148;DHT22;44930;52.878;6.168;2023-03-04T11:34:33;7.20;99.90
59148;DHT22;44930;52.878;6.168;2023-03-04T11:39:36;7.10;99.90
59148;DHT22;44930;52.878;6.168;2023-03-04T11:44:47;7.30;99.90
59148;DHT22;44930;52.878;6.168;2023-03-04T12:00:39;8.00;99.90
59148;DHT22;44930;52.878;6.168;2023-03-04T12:03:18;8.10;99.90
59148;DHT22;44930;52.878;6.168;2023-03-04T12:14:26;8.10;99.90
59148;DHT22;44930;52.878;6.168;2023-03-04T12:20:08;8.40;99.90
59148;DHT22;44930;52.878;6.168;2023-03-04T12:22:45;8.30;99.90
59148;DHT22;44930;52.878;6.168;2023-03-04T12:33:56;8.20;99.90
59148;DHT22;44930;52.878;6.168;2023-03-04T12:36:28;8.20;99.90
59148;DHT22;44930;52.878;6.168;2023-03-04T12:38:59;8.00;99.90
59148;DHT22;44930;52.878;6.168;2023-03-04T12:44:16;7.90;99.90
59148;DHT22;44930;52.878;6.168;2023-03-04T12:52:51;7.40;99.90
59148;DHT22;44930;52.878;6.168;2023-03-04T12:57:49;7.90;99.90
59148;DHT22;44930;52.878;6.168;2023-03-04T13:00:39;8.10;99.90
59148;DHT22;44930;52.878;6.168;2023-03-04T13:16:32;7.90;99.90
59148;DHT22;44930;52.878;6.168;2023-03-04T13:19:00;8.00;99.90
59148;DHT22;44930;52.878;6.168;2023-03-04T13:21:28;8.00;99.90
59148;DHT22;44930;52.878;6.168;2023-03-04T13:23:57;7.90;99.90
59148;DHT22;44930;52.878;6.168;2023-03-04T13:29:29;8.20;99.90
59148;DHT22;44930;52.878;6.168;2023-03-04T13:37:35;8.40;99.90
59148;DHT22;44930;52.878;6.168;2023-03-04T13:42:45;8.20;99.90
59148;DHT22;44930;52.878;6.168;2023-03-04T13:45:35;8.00;99.90
59148;DHT22;44930;52.878;6.168;2023-03-04T13:50:36;8.00;99.90
59148;DHT22;44930;52.878;6.168;2023-03-04T13:53:40;8.60;99.90
59148;DHT22;44930;52.878;6.168;2023-03-04T13:58:34;8.60;99.90
59148;DHT22;44930;52.878;6.168;2023-03-04T14:01:00;8.70;99.90
59148;DHT22;44930;52.878;6.168;2023-03-04T14:03:29;8.60;99.90
59148;DHT22;44930;52.878;6.168;2023-03-04T14:06:17;8.50;99.90
59148;DHT22;44930;52.878;6.168;2023-03-04T14:08:48;7.90;99.90
59148;DHT22;44930;52.878;6.168;2023-03-04T14:11:23;8.10;99.90
59148;DHT22;44930;52.878;6.168;2023-03-04T14:13:49;8.00;99.90
59148;DHT22;44930;52.878;6.168;2023-03-04T14:18:45;8.00;99.90
59148;DHT22;44930;52.878;6.168;2023-03-04T14:21:13;7.90;99.90
59148;DHT22;44930;52.878;6.168;2023-03-04T14:23:40;7.90;99.90
59148;DHT22;44930;52.878;6.168;2023-03-04T14:26:14;7.70;99.90
59148;DHT22;44930;52.878;6.168;2023-03-04T14:28:46;7.80;99.90
59148;DHT22;44930;52.878;6.168;2023-03-04T14:31:18;7.90;99.90
59148;DHT22;44930;52.878;6.168;2023-03-04T14:33:46;8.00;99.90
59148;DHT22;44930;52.878;6.168;2023-03-04T14:38:44;8.00;99.90
59148;DHT22;44930;52.878;6.168;2023-03-04T14:41:18;7.90;99.90
59148;DHT22;44930;52.878;6.168;2023-03-04T14:44:02;7.90;99.90
59148;DHT22;44930;52.878;6.168;2023-03-04T14:46:35;8.10;99.90
59148;DHT22;44930;52.878;6.168;2023-03-04T14:49:05;7.90;99.90
59148;DHT22;44930;52.878;6.168;2023-03-04T14:54:02;7.90;99.90
59148;DHT22;44930;52.878;6.168;2023-03-04T14:56:30;7.90;99.90
59148;DHT22;44930;52.878;6.168;2023-03-04T14:58:58;7.70;99.90
59148;DHT22;44930;52.878;6.168;2023-03-04T15:01:30;7.70;99.90
59148;DHT22;44930;52.878;6.168;2023-03-04T15:06:24;7.80;99.90
59148;DHT22;44930;52.878;6.168;2023-03-04T15:11:23;7.50;99.90
59148;DHT22;44930;52.878;6.168;2023-03-04T15:13:53;7.70;99.90
59148;DHT22;44930;52.878;6.168;2023-03-04T15:16:21;7.20;99.90
59148;DHT22;44930;52.878;6.168;2023-03-04T15:19:05;7.40;99.90
59148;DHT22;44930;52.878;6.168;2023-03-04T15:21:48;7.30;99.90
59148;DHT22;44930;52.878;6.168;2023-03-04T15:24:14;7.30;99.90
59148;DHT22;44930;52.878;6.168;2023-03-04T15:26:41;7.10;99.90
59148;DHT22;44930;52.878;6.168;2023-03-04T15:29:19;7.10;99.90
59148;DHT22;44930;52.878;6.168;2023-03-04T15:31:45;7.10;99.90
59148;DHT22;44930;52.878;6.168;2023-03-04T15:34:17;7.00;99.90
59148;DHT22;44930;52.878;6.168;2023-03-04T15:36:45;6.90;99.90
59148;DHT22;44930;52.878;6.168;2023-03-04T15:39:12;6.70;99.90
59148;DHT22;44930;52.878;6.168;2023-03-04T15:41:39;6.80;99.90
59148;DHT22;44930;52.878;6.168;2023-03-04T15:44:04;6.60;99.90
59148;DHT22;44930;52.878;6.168;2023-03-04T15:46:30;6.60;99.90
59148;DHT22;44930;52.878;6.168;2023-03-04T15:48:56;6.60;99.90
59148;DHT22;44930;52.878;6.168;2023-03-04T15:51:22;6.70;99.90
59148;DHT22;44930;52.878;6.168;2023-03-04T15:53:50;6.60;99.90
59148;DHT22;44930;52.878;6.168;2023-03-04T15:56:19;6.40;99.90
59148;DHT22;44930;52.878;6.168;2023-03-04T15:58:57;6.40;99.90
59148;DHT22;44930;52.878;6.168;2023-03-04T16:01:24;6.40;99.90
59148;DHT22;44930;52.878;6.168;2023-03-04T16:03:50;6.40;99.90
59148;DHT22;44930;52.878;6.168;2023-03-04T16:06:17;6.60;99.90
59148;DHT22;44930;52.878;6.168;2023-03-04T16:08:45;6.30;99.90
59148;DHT22;44930;52.878;6.168;2023-03-04T16:11:20;6.50;99.90
59148;DHT22;44930;52.878;6.168;2023-03-04T16:13:47;6.50;99.90
59148;DHT22;44930;52.878;6.168;2023-03-04T16:16:13;6.50;99.90
59148;DHT22;44930;52.878;6.168;2023-03-04T16:18:39;6.50;99.90
59148;DHT22;44930;52.878;6.168;2023-03-04T16:21:06;6.40;99.90
59148;DHT22;44930;52.878;6.168;2023-03-04T16:23:38;7.00;99.90
59148;DHT22;44930;52.878;6.168;2023-03-04T16:28:31;6.30;99.90
59148;DHT22;44930;52.878;6.168;2023-03-04T16:33:22;6.10;99.90
59148;DHT22;44930;52.878;6.168;2023-03-04T16:38:27;6.30;99.90
59148;DHT22;44930;52.878;6.168;2023-03-04T16:40:56;6.20;99.90
59148;DHT22;44930;52.878;6.168;2023-03-04T16:43:22;6.10;99.90
59148;DHT22;44930;52.878;6.168;2023-03-04T16:45:48;6.20;99.90
59148;DHT22;44930;52.878;6.168;2023-03-04T16:48:14;6.10;99.90
59148;DHT22;44930;52.878;6.168;2023-03-04T16:50:41;6.00;99.90
59148;DHT22;44930;52.878;6.168;2023-03-04T16:53:35;6.30;99.90
59148;DHT22;44930;52.878;6.168;2023-03-04T16:56:09;6.30;99.90
59148;DHT22;44930;52.878;6.168;2023-03-04T17:01:02;6.10;99.90
59148;DHT22;44930;52.878;6.168;2023-03-04T17:03:28;6.00;99.90
59148;DHT22;44930;52.878;6.168;2023-03-04T17:05:54;6.00;99.90
59148;DHT22;44930;52.878;6.168;2023-03-04T17:08:19;5.90;99.90
59148;DHT22;44930;52.878;6.168;2023-03-04T17:10:45;6.00;99.90
59148;DHT22;44930;52.878;6.168;2023-03-04T17:13:13;5.90;99.90
59148;DHT22;44930;52.878;6.168;2023-03-04T17:15:38;5.80;99.90
59148;DHT22;44930;52.878;6.168;2023-03-04T17:18:07;5.90;99.90
59148;DHT22;44930;52.878;6.168;2023-03-04T17:20:33;5.90;99.90
59148;DHT22;44930;52.878;6.168;2023-03-04T17:22:58;5.70;99.90
59148;DHT22;44930;52.878;6.168;2023-03-04T17:25:24;5.60;99.90
59148;DHT22;44930;52.878;6.168;2023-03-04T17:27:49;5.70;99.90
59148;DHT22;44930;52.878;6.168;2023-03-04T17:30:15;5.60;99.90
59148;DHT22;44930;52.878;6.168;2023-03-04T17:32:41;5.50;99.90
59148;DHT22;44930;52.878;6.168;2023-03-04T17:35:07;5.60;99.90
59148;DHT22;44930;52.878;6.168;2023-03-04T17:37:33;5.60;99.90
59148;DHT22;44930;52.878;6.168;2023-03-04T17:40:01;5.60;99.90
59148;DHT22;44930;52.878;6.168;2023-03-04T17:44:52;5.50;99.90
59148;DHT22;44930;52.878;6.168;2023-03-04T17:52:10;5.70;99.90
59148;DHT22;44930;52.878;6.168;2023-03-04T17:54:36;5.60;99.90
59148;DHT22;44930;52.878;6.168;2023-03-04T17:59:28;5.50;99.90
59148;DHT22;44930;52.878;6.168;2023-03-04T18:01:54;5.50;99.90
59148;DHT22;44930;52.878;6.168;2023-03-04T18:04:20;5.60;99.90
59148;DHT22;44930;52.878;6.168;2023-03-04T18:06:45;5.50;99.90
59148;DHT22;44930;52.878;6.168;2023-03-04T18:09:11;5.60;99.90
59148;DHT22;44930;52.878;6.168;2023-03-04T18:11:38;5.70;99.90
59148;DHT22;44930;52.878;6.168;2023-03-04T18:16:31;5.50;99.90
59148;DHT22;44930;52.878;6.168;2023-03-04T18:18:58;5.50;99.90
59148;DHT22;44930;52.878;6.168;2023-03-04T18:21:25;5.40;99.90
59148;DHT22;44930;52.878;6.168;2023-03-04T18:23:51;5.40;99.90
59148;DHT22;44930;52.878;6.168;2023-03-04T18:26:18;5.40;99.90
59148;DHT22;44930;52.878;6.168;2023-03-04T18:28:46;5.40;99.90
59148;DHT22;44930;52.878;6.168;2023-03-04T18:31:12;5.50;99.90
59148;DHT22;44930;52.878;6.168;2023-03-04T18:33:38;5.30;99.90
59148;DHT22;44930;52.878;6.168;2023-03-04T18:36:06;5.70;99.90
59148;DHT22;44930;52.878;6.168;2023-03-04T18:38:33;5.40;99.90
59148;DHT22;44930;52.878;6.168;2023-03-04T18:41:03;5.40;99.90
59148;DHT22;44930;52.878;6.168;2023-03-04T18:46:10;5.90;99.90
59148;DHT22;44930;52.878;6.168;2023-03-04T18:48:45;5.40;99.90
59148;DHT22;44930;52.878;6.168;2023-03-04T18:53:38;5.30;99.90
59148;DHT22;44930;52.878;6.168;2023-03-04T18:56:11;5.10;99.90
59148;DHT22;44930;52.878;6.168;2023-03-04T18:58:38;5.10;99.90
59148;DHT22;44930;52.878;6.168;2023-03-04T19:01:07;5.10;99.90
59148;DHT22;44930;52.878;6.168;2023-03-04T19:03:33;5.10;99.90
59148;DHT22;44930;52.878;6.168;2023-03-04T19:06:01;5.10;99.90
59148;DHT22;44930;52.878;6.168;2023-03-04T19:08:27;5.20;99.90
59148;DHT22;44930;52.878;6.168;2023-03-04T19:10:53;5.10;99.90